Time;durP1;ratioP1;P1;durP2;ratioP2;P2;SDS_P1;SDS_P2;PMS_P1;PMS_P2;Temp;Humidity;BMP_temperature;BMP_pressure;BME280_temperature;BME280_humidity;BME280_pressure;Samples;Min_cycle;Max_cycle;Signal;HPM_P1;HPM_P2
2023/10/21 00:01:49;0.00;0.00;0.62;0.00;0.00;0.62;2.50;1.73;;;21.80;27.20;;;;;;2276862;60;20338;-61
2023/10/21 00:04:35;0.00;0.00;0.62;0.00;0.00;0.62;1.80;1.27;;;21.90;27.30;;;;;;2276977;60;20507;-62
2023/10/21 00:07:20;0.00;0.00;0.62;0.00;0.00;0.62;2.47;1.57;;;21.80;27.20;;;;;;2276775;60;21101;-63
2023/10/21 00:10:06;0.00;0.00;0.62;0.00;0.00;0.62;2.23;1.53;;;21.90;27.30;;;;;;2276722;60;20785;-63
2023/10/21 00:12:51;0.00;0.00;0.62;0.00;0.00;0.62;1.90;1.20;;;21.80;27.20;;;;;;2276968;60;20481;-62
2023/10/21 00:15:35;0.00;0.00;0.62;0.00;0.00;0.62;2.47;1.50;;;21.80;27.20;;;;;;2276941;60;20403;-62
2023/10/21 00:18:20;0.00;0.00;0.62;0.00;0.00;0.62;2.33;1.60;;;21.90;27.30;;;;;;2276713;60;20806;-63
2023/10/21 00:21:06;0.00;0.00;0.62;0.00;0.00;0.62;2.20;1.30;;;21.90;27.30;;;;;;2276886;60;20758;-63
2023/10/21 00:23:50;0.00;0.00;0.62;0.00;0.00;0.62;2.00;1.60;;;21.80;27.20;;;;;;2276773;60;20381;-63
2023/10/21 00:26:44;0.00;0.00;0.62;0.00;0.00;0.62;1.97;1.37;;;21.80;27.20;;;;;;2277186;60;20387;-62
2023/10/21 00:29:28;0.00;0.00;0.62;0.00;0.00;0.62;2.33;1.53;;;21.80;27.80;;;;;;2276609;60;20441;-62
2023/10/21 00:32:13;0.00;0.00;0.62;0.00;0.00;0.62;2.07;1.43;;;21.90;27.30;;;;;;2273572;60;20393;-61
2023/10/21 00:34:57;0.00;0.00;0.62;0.00;0.00;0.62;2.20;1.30;;;21.90;27.30;;;;;;2276826;60;20357;-63
2023/10/21 00:37:43;0.00;0.00;0.62;0.00;0.00;0.62;2.10;1.23;;;21.80;27.20;;;;;;2276964;60;20366;-62
2023/10/21 00:40:28;0.00;0.00;0.62;0.00;0.00;0.62;3.23;1.80;;;21.80;27.30;;;;;;2276419;60;20390;-63
2023/10/21 00:43:12;0.00;0.00;0.62;0.00;0.00;0.62;1.90;1.30;;;21.80;27.20;;;;;;2277026;60;20526;-63
2023/10/21 00:45:57;0.00;0.00;0.62;0.00;0.00;0.62;2.20;1.73;;;21.80;27.30;;;;;;2276779;60;20446;-62
2023/10/21 00:48:42;0.00;0.00;0.62;0.00;0.00;0.62;1.90;1.23;;;21.90;27.30;;;;;;2276649;60;20427;-63
2023/10/21 00:51:27;0.00;0.00;0.62;0.00;0.00;0.62;2.13;1.30;;;21.80;27.30;;;;;;2276977;60;20385;-61
2023/10/21 00:54:14;0.00;0.00;0.62;0.00;0.00;0.62;1.90;1.20;;;21.80;27.20;;;;;;2276671;60;20415;-63
2023/10/21 00:56:59;0.00;0.00;0.62;0.00;0.00;0.62;2.30;1.60;;;21.80;27.20;;;;;;2276559;60;20365;-63
2023/10/21 00:59:44;0.00;0.00;0.62;0.00;0.00;0.62;2.67;1.70;;;21.90;27.30;;;;;;2276658;60;20368;-60
2023/10/21 01:02:30;0.00;0.00;0.62;0.00;0.00;0.62;2.13;1.40;;;21.90;27.30;;;;;;2276160;60;20419;-62
2023/10/21 01:05:15;0.00;0.00;0.62;0.00;0.00;0.62;1.90;1.23;;;21.80;27.20;;;;;;2277074;60;20885;-63
2023/10/21 01:08:00;0.00;0.00;0.62;0.00;0.00;0.62;2.33;1.37;;;21.80;27.20;;;;;;2271433;60;20403;-62
2023/10/21 01:10:46;0.00;0.00;0.62;0.00;0.00;0.62;2.30;1.50;;;21.90;27.30;;;;;;2269656;57;20386;-61
2023/10/21 01:13:31;0.00;0.00;0.62;0.00;0.00;0.62;1.97;1.30;;;21.80;27.20;;;;;;2269655;61;20918;-62
2023/10/21 01:16:16;0.00;0.00;0.62;0.00;0.00;0.62;1.80;1.20;;;21.80;27.20;;;;;;2272815;61;20374;-64
2023/10/21 01:19:01;0.00;0.00;0.62;0.00;0.00;0.62;2.30;1.40;;;21.80;27.30;;;;;;2272103;61;20358;-61
2023/10/21 01:21:45;0.00;0.00;0.62;0.00;0.00;0.62;2.17;1.30;;;21.80;27.30;;;;;;2272799;61;20491;-60
2023/10/21 01:24:31;0.00;0.00;0.62;0.00;0.00;0.62;2.40;1.33;;;21.80;27.30;;;;;;2272734;60;20393;-60
2023/10/21 01:27:16;0.00;0.00;0.62;0.00;0.00;0.62;2.00;1.30;;;21.80;27.30;;;;;;2269876;61;20469;-61
2023/10/21 01:30:00;0.00;0.00;0.62;0.00;0.00;0.62;2.00;1.47;;;21.80;27.30;;;;;;2272667;61;20451;-62
2023/10/21 01:32:46;0.00;0.00;0.62;0.00;0.00;0.62;1.73;1.30;;;21.80;27.30;;;;;;2272819;61;20409;-62
2023/10/21 01:35:31;0.00;0.00;0.62;0.00;0.00;0.62;2.50;1.77;;;21.80;27.30;;;;;;2272886;61;20388;-63
2023/10/21 01:38:15;0.00;0.00;0.62;0.00;0.00;0.62;2.63;1.83;;;21.80;27.30;;;;;;2274094;60;20923;-62
2023/10/21 01:41:01;0.00;0.00;0.62;0.00;0.00;0.62;1.90;1.23;;;21.80;27.30;;;;;;2296353;57;20874;-59
2023/10/21 01:43:46;0.00;0.00;0.62;0.00;0.00;0.62;2.07;1.43;;;21.80;27.30;;;;;;2266769;61;20402;-62
2023/10/21 01:46:31;0.00;0.00;0.62;0.00;0.00;0.62;1.90;1.30;;;21.80;27.30;;;;;;2276254;60;20446;-61
2023/10/21 01:49:15;0.00;0.00;0.62;0.00;0.00;0.62;2.10;1.40;;;21.80;27.30;;;;;;2801169;45;20364;-61
2023/10/21 01:52:00;0.00;0.00;0.62;0.00;0.00;0.62;2.10;1.40;;;21.80;27.30;;;;;;2276680;60;20385;-62
2023/10/21 01:54:44;0.00;0.00;0.62;0.00;0.00;0.62;2.00;1.40;;;21.80;27.30;;;;;;2277024;60;20373;-61
2023/10/21 01:57:32;0.00;0.00;0.62;0.00;0.00;0.62;1.93;1.13;;;21.80;27.30;;;;;;2273796;60;20438;-62
2023/10/21 02:00:20;0.00;0.00;0.62;0.00;0.00;0.62;2.07;1.43;;;21.80;27.30;;;;;;2274077;60;20399;-61
2023/10/21 02:03:05;0.00;0.00;0.62;0.00;0.00;0.62;1.70;1.30;;;21.80;27.30;;;;;;2274329;60;20415;-62
2023/10/21 02:05:49;0.00;0.00;0.62;0.00;0.00;0.62;1.90;1.40;;;21.80;27.30;;;;;;2274453;60;20892;-61
2023/10/21 02:08:35;0.00;0.00;0.62;0.00;0.00;0.62;1.93;1.23;;;21.80;27.30;;;;;;2277122;60;20753;-62
2023/10/21 02:11:22;0.00;0.00;0.62;0.00;0.00;0.62;2.10;1.30;;;21.80;27.80;;;;;;2277615;60;20865;-62
2023/10/21 02:14:08;0.00;0.00;0.62;0.00;0.00;0.62;1.87;1.30;;;21.80;27.30;;;;;;2274287;60;20416;-62
2023/10/21 02:16:53;0.00;0.00;0.62;0.00;0.00;0.62;2.13;1.47;;;21.80;27.30;;;;;;2270157;61;20414;-61
2023/10/21 02:19:38;0.00;0.00;0.62;0.00;0.00;0.62;1.70;1.07;;;21.80;27.20;;;;;;2273515;61;20446;-63
2023/10/21 02:22:23;0.00;0.00;0.62;0.00;0.00;0.62;1.90;1.27;;;21.80;27.30;;;;;;2273549;61;20919;-61
2023/10/21 02:25:12;0.00;0.00;0.62;0.00;0.00;0.62;2.13;1.63;;;21.80;27.30;;;;;;2273575;61;20417;-60
2023/10/21 02:27:56;0.00;0.00;0.62;0.00;0.00;0.62;1.97;1.43;;;21.80;27.30;;;;;;2273293;61;20389;-64
2023/10/21 02:30:42;0.00;0.00;0.62;0.00;0.00;0.62;1.87;1.17;;;21.80;27.30;;;;;;2273150;61;20369;-61
2023/10/21 02:33:27;0.00;0.00;0.62;0.00;0.00;0.62;1.60;1.20;;;21.80;27.30;;;;;;2272829;61;20912;-60
2023/10/21 02:36:11;0.00;0.00;0.62;0.00;0.00;0.62;1.90;1.40;;;21.80;27.30;;;;;;2272898;61;20363;-62
2023/10/21 02:38:56;0.00;0.00;0.62;0.00;0.00;0.62;1.93;1.20;;;21.80;27.30;;;;;;2273263;61;20359;-61
2023/10/21 02:41:40;0.00;0.00;0.62;0.00;0.00;0.62;1.70;1.23;;;21.80;27.30;;;;;;2273396;61;20404;-62
2023/10/21 02:44:25;0.00;0.00;0.62;0.00;0.00;0.62;2.03;1.50;;;21.80;27.30;;;;;;2273385;61;20358;-62
2023/10/21 02:47:11;0.00;0.00;0.62;0.00;0.00;0.62;1.70;1.30;;;21.80;27.30;;;;;;2273530;61;20461;-61
2023/10/21 02:49:55;0.00;0.00;0.62;0.00;0.00;0.62;2.00;1.27;;;21.80;27.30;;;;;;2273096;61;20882;-61
2023/10/21 02:52:40;0.00;0.00;0.62;0.00;0.00;0.62;1.80;1.30;;;21.80;27.30;;;;;;2273229;61;20418;-62
2023/10/21 02:55:25;0.00;0.00;0.62;0.00;0.00;0.62;1.70;1.27;;;21.80;27.30;;;;;;2272884;61;20839;-60
2023/10/21 02:58:10;0.00;0.00;0.62;0.00;0.00;0.62;2.00;1.40;;;21.80;27.30;;;;;;2273076;61;20733;-61
2023/10/21 03:00:55;0.00;0.00;0.62;0.00;0.00;0.62;2.03;1.30;;;21.80;27.30;;;;;;2273293;61;20748;-62
2023/10/21 03:03:41;0.00;0.00;0.62;0.00;0.00;0.62;2.17;1.63;;;21.80;27.30;;;;;;2272886;61;20370;-62
2023/10/21 03:06:26;0.00;0.00;0.62;0.00;0.00;0.62;1.53;1.03;;;21.80;27.30;;;;;;2273152;61;20912;-62
2023/10/21 03:09:10;0.00;0.00;0.62;0.00;0.00;0.62;2.70;1.40;;;21.80;27.30;;;;;;2272241;61;20362;-62
2023/10/21 03:11:55;0.00;0.00;0.62;0.00;0.00;0.62;1.67;1.10;;;21.80;27.30;;;;;;2272432;61;20385;-61
2023/10/21 03:14:40;0.00;0.00;0.62;0.00;0.00;0.62;2.07;1.47;;;21.80;27.30;;;;;;2273238;61;20374;-60
2023/10/21 03:17:25;0.00;0.00;0.62;0.00;0.00;0.62;2.60;1.90;;;21.80;27.30;;;;;;2272721;61;20435;-62
2023/10/21 03:20:12;0.00;0.00;0.62;0.00;0.00;0.62;2.17;1.50;;;21.80;27.30;;;;;;2272669;61;20767;-61
2023/10/21 03:22:56;0.00;0.00;0.62;0.00;0.00;0.62;1.67;1.00;;;21.80;27.30;;;;;;2273016;61;20382;-58
2023/10/21 03:25:41;0.00;0.00;0.62;0.00;0.00;0.62;2.00;1.20;;;21.80;27.30;;;;;;2273212;61;20367;-61
2023/10/21 03:28:26;0.00;0.00;0.62;0.00;0.00;0.62;2.20;1.50;;;21.80;27.80;;;;;;2272617;61;20460;-61
2023/10/21 03:31:10;0.00;0.00;0.62;0.00;0.00;0.62;2.10;1.50;;;21.80;27.30;;;;;;2273211;61;20774;-61
2023/10/21 03:33:55;0.00;0.00;0.62;0.00;0.00;0.62;1.73;1.10;;;21.80;27.30;;;;;;2272786;61;20458;-61
2023/10/21 03:36:41;0.00;0.00;0.62;0.00;0.00;0.62;1.90;1.30;;;21.80;27.30;;;;;;2273138;61;20346;-62
2023/10/21 03:39:26;0.00;0.00;0.62;0.00;0.00;0.62;2.00;1.40;;;21.80;27.30;;;;;;2272970;61;20358;-62
2023/10/21 03:42:11;0.00;0.00;0.62;0.00;0.00;0.62;2.30;1.50;;;21.80;27.30;;;;;;2273107;61;20423;-61
2023/10/21 03:44:55;0.00;0.00;0.62;0.00;0.00;0.62;2.50;1.40;;;21.80;27.30;;;;;;2273341;61;20365;-67
2023/10/21 03:47:40;0.00;0.00;0.62;0.00;0.00;0.62;2.00;1.40;;;21.80;27.30;;;;;;2273221;61;20354;-61
2023/10/21 03:50:25;0.00;0.00;0.62;0.00;0.00;0.62;2.10;1.33;;;21.80;27.30;;;;;;2272622;61;20416;-63
2023/10/21 03:53:13;0.00;0.00;0.62;0.00;0.00;0.62;1.77;1.40;;;21.80;27.30;;;;;;2273174;61;20946;-61
2023/10/21 03:55:58;0.00;0.00;0.62;0.00;0.00;0.62;1.90;1.40;;;21.80;27.30;;;;;;2272988;61;20397;-58
2023/10/21 03:58:43;0.00;0.00;0.62;0.00;0.00;0.62;2.00;1.30;;;21.80;27.30;;;;;;2272260;61;20790;-58
2023/10/21 04:01:27;0.00;0.00;0.62;0.00;0.00;0.62;2.40;1.70;;;21.80;27.30;;;;;;2272848;61;20382;-57
2023/10/21 04:04:12;0.00;0.00;0.62;0.00;0.00;0.62;2.03;1.53;;;21.80;27.30;;;;;;2272956;61;20385;-60
2023/10/21 04:06:56;0.00;0.00;0.62;0.00;0.00;0.62;2.13;1.37;;;21.80;27.30;;;;;;2272927;61;20548;-58
2023/10/21 04:09:42;0.00;0.00;0.62;0.00;0.00;0.62;1.83;1.30;;;21.80;27.30;;;;;;2272488;61;20366;-59
2023/10/21 04:12:27;0.00;0.00;0.62;0.00;0.00;0.62;2.10;1.57;;;21.80;27.30;;;;;;2272823;61;20963;-60
2023/10/21 04:15:11;0.00;0.00;0.62;0.00;0.00;0.62;2.00;1.50;;;21.80;27.30;;;;;;2272641;61;20409;-59
2023/10/21 04:17:56;0.00;0.00;0.62;0.00;0.00;0.62;1.90;1.40;;;21.80;27.30;;;;;;2272059;61;20890;-59
2023/10/21 04:20:40;0.00;0.00;0.62;0.00;0.00;0.62;1.70;1.20;;;21.80;27.30;;;;;;2272844;61;20365;-59
2023/10/21 04:23:25;0.00;0.00;0.62;0.00;0.00;0.62;1.80;1.20;;;21.80;27.30;;;;;;2272834;61;20913;-60
2023/10/21 04:26:11;0.00;0.00;0.62;0.00;0.00;0.62;2.13;1.30;;;21.80;27.30;;;;;;2272405;61;20374;-58
2023/10/21 04:28:55;0.00;0.00;0.62;0.00;0.00;0.62;1.80;1.20;;;21.80;27.30;;;;;;2272547;61;20890;-59
2023/10/21 04:31:40;0.00;0.00;0.62;0.00;0.00;0.62;2.00;1.50;;;21.80;27.30;;;;;;2272816;61;20389;-60
2023/10/21 04:34:25;0.00;0.00;0.62;0.00;0.00;0.62;2.50;1.83;;;21.80;27.40;;;;;;2522913;53;20481;-56
2023/10/21 04:37:09;0.00;0.00;0.62;0.00;0.00;0.62;2.00;1.30;;;21.80;27.30;;;;;;2273062;61;20358;-60
2023/10/21 04:39:54;0.00;0.00;0.62;0.00;0.00;0.62;1.93;1.53;;;21.80;27.30;;;;;;2272388;61;20432;-58
2023/10/21 04:42:40;0.00;0.00;0.62;0.00;0.00;0.62;1.70;1.40;;;21.80;27.30;;;;;;2272855;61;20427;-58
2023/10/21 04:45:25;0.00;0.00;0.62;0.00;0.00;0.62;1.60;1.17;;;21.80;27.30;;;;;;2272897;61;20806;-58
2023/10/21 04:48:10;0.00;0.00;0.62;0.00;0.00;0.62;1.97;1.50;;;21.80;27.30;;;;;;2272253;61;20397;-58
2023/10/21 04:50:55;0.00;0.00;0.62;0.00;0.00;0.62;2.00;1.50;;;21.80;27.30;;;;;;2272599;61;20362;-57
2023/10/21 04:53:40;0.00;0.00;0.62;0.00;0.00;0.62;2.03;1.20;;;21.80;27.40;;;;;;2272690;61;20435;-59
2023/10/21 04:56:25;0.00;0.00;0.62;0.00;0.00;0.62;1.93;1.43;;;21.80;27.40;;;;;;2272656;61;20872;-60
2023/10/21 04:59:11;0.00;0.00;0.62;0.00;0.00;0.62;1.90;1.50;;;21.80;27.40;;;;;;2272640;61;20358;-58
2023/10/21 05:01:56;0.00;0.00;0.62;0.00;0.00;0.62;1.90;1.37;;;21.80;27.40;;;;;;2272787;61;20359;-59
2023/10/21 05:04:40;0.00;0.00;0.62;0.00;0.00;0.62;1.83;1.27;;;21.80;27.40;;;;;;2272661;61;20366;-60
2023/10/21 05:07:25;0.00;0.00;0.62;0.00;0.00;0.62;1.70;1.17;;;21.80;27.40;;;;;;2272599;61;20374;-59
2023/10/21 05:10:10;0.00;0.00;0.62;0.00;0.00;0.62;1.67;1.30;;;21.80;27.40;;;;;;2272602;61;20400;-58
2023/10/21 05:12:55;0.00;0.00;0.62;0.00;0.00;0.62;2.00;1.30;;;21.80;27.40;;;;;;2269321;61;20926;-56
2023/10/21 05:15:41;0.00;0.00;0.62;0.00;0.00;0.62;2.00;1.30;;;21.80;27.40;;;;;;2272638;61;20757;-59
2023/10/21 05:18:26;0.00;0.00;0.62;0.00;0.00;0.62;1.67;1.30;;;21.80;27.40;;;;;;2272316;61;20377;-58
2023/10/21 05:21:10;0.00;0.00;0.62;0.00;0.00;0.62;1.80;1.37;;;21.80;27.40;;;;;;2269351;61;20396;-59
2023/10/21 05:23:55;0.00;0.00;0.62;0.00;0.00;0.62;2.53;1.40;;;21.80;27.40;;;;;;2272818;61;20492;-59
2023/10/21 05:26:40;0.00;0.00;0.62;0.00;0.00;0.62;2.23;1.50;;;21.80;27.40;;;;;;2272412;61;20350;-57
2023/10/21 05:29:24;0.00;0.00;0.62;0.00;0.00;0.62;1.70;1.10;;;21.80;27.40;;;;;;2272371;61;20412;-60
2023/10/21 05:32:10;0.00;0.00;0.62;0.00;0.00;0.62;1.60;1.10;;;21.80;27.40;;;;;;2272722;61;20398;-60
2023/10/21 05:34:55;0.00;0.00;0.62;0.00;0.00;0.62;1.90;1.37;;;21.80;27.40;;;;;;2273228;61;20370;-57
2023/10/21 05:37:40;0.00;0.00;0.62;0.00;0.00;0.62;1.80;1.30;;;21.80;27.40;;;;;;2273414;61;20415;-58
2023/10/21 05:40:25;0.00;0.00;0.62;0.00;0.00;0.62;1.83;1.40;;;21.80;27.40;;;;;;2273329;61;20779;-60
2023/10/21 05:43:09;0.00;0.00;0.62;0.00;0.00;0.62;1.70;1.20;;;21.80;27.40;;;;;;2273075;61;20374;-58
2023/10/21 05:45:54;0.00;0.00;0.62;0.00;0.00;0.62;1.97;1.20;;;21.80;27.40;;;;;;2273368;61;20408;-59
2023/10/21 05:48:40;0.00;0.00;0.62;0.00;0.00;0.62;1.70;1.30;;;21.80;27.40;;;;;;2272710;61;20898;-61
2023/10/21 05:51:25;0.00;0.00;0.62;0.00;0.00;0.62;1.90;1.47;;;21.80;27.40;;;;;;2273312;61;20938;-60
2023/10/21 05:54:09;0.00;0.00;0.62;0.00;0.00;0.62;2.00;1.40;;;21.80;27.40;;;;;;2273232;61;20829;-60
2023/10/21 05:56:54;0.00;0.00;0.62;0.00;0.00;0.62;2.27;1.70;;;21.80;27.40;;;;;;2273162;61;20377;-59
2023/10/21 05:59:39;0.00;0.00;0.62;0.00;0.00;0.62;2.03;1.40;;;21.80;27.40;;;;;;2272821;61;20362;-59
2023/10/21 06:02:23;0.00;0.00;0.62;0.00;0.00;0.62;1.70;1.10;;;21.80;27.40;;;;;;2273481;61;20807;-59
2023/10/21 06:05:10;0.00;0.00;0.62;0.00;0.00;0.62;2.50;1.27;;;21.80;27.40;;;;;;2273159;61;20363;-57
2023/10/21 06:07:54;0.00;0.00;0.62;0.00;0.00;0.62;2.00;1.43;;;21.80;27.40;;;;;;2272776;61;20423;-60
2023/10/21 06:10:40;0.00;0.00;0.62;0.00;0.00;0.62;2.07;1.40;;;21.80;27.40;;;;;;2273249;61;20394;-60
2023/10/21 06:13:24;0.00;0.00;0.62;0.00;0.00;0.62;1.70;1.30;;;21.80;27.40;;;;;;2273242;61;20463;-60
2023/10/21 06:16:09;0.00;0.00;0.62;0.00;0.00;0.62;1.90;1.47;;;21.80;27.40;;;;;;2273401;61;20397;-56
2023/10/21 06:18:54;0.00;0.00;0.62;0.00;0.00;0.62;2.00;1.40;;;21.80;27.40;;;;;;2272849;61;20358;-59
2023/10/21 06:21:40;0.00;0.00;0.62;0.00;0.00;0.62;2.00;1.43;;;21.80;27.40;;;;;;2273296;61;20372;-59
2023/10/21 06:24:25;0.00;0.00;0.62;0.00;0.00;0.62;2.00;1.37;;;21.80;27.40;;;;;;2273509;61;20439;-59
2023/10/21 06:27:11;0.00;0.00;0.62;0.00;0.00;0.62;2.10;1.50;;;21.80;27.50;;;;;;2273062;61;20362;-60
2023/10/21 06:29:55;0.00;0.00;0.62;0.00;0.00;0.62;1.83;1.43;;;21.80;27.40;;;;;;2273015;61;20358;-60
2023/10/21 06:32:40;0.00;0.00;0.62;0.00;0.00;0.62;2.13;1.50;;;21.80;27.40;;;;;;2273158;61;20838;-60
2023/10/21 06:35:24;0.00;0.00;0.62;0.00;0.00;0.62;2.80;1.80;;;21.80;27.40;;;;;;2273375;61;20361;-58
2023/10/21 06:38:11;0.00;0.00;0.62;0.00;0.00;0.62;1.70;1.20;;;21.90;27.50;;;;;;2272489;61;20462;-60
2023/10/21 06:40:56;0.00;0.00;0.62;0.00;0.00;0.62;1.90;1.23;;;21.80;27.40;;;;;;2272920;61;20503;-57
2023/10/21 06:43:41;0.00;0.00;0.62;0.00;0.00;0.62;2.10;1.20;;;21.80;27.40;;;;;;2273137;61;20470;-60
2023/10/21 06:46:25;0.00;0.00;0.62;0.00;0.00;0.62;1.70;1.20;;;21.80;27.50;;;;;;2270018;61;20362;-55
2023/10/21 06:49:10;0.00;0.00;0.62;0.00;0.00;0.62;2.00;1.33;;;21.80;27.40;;;;;;2272465;61;20450;-60
2023/10/21 06:51:55;0.00;0.00;0.62;0.00;0.00;0.62;1.87;1.20;;;21.80;27.40;;;;;;2273191;61;20458;-60
2023/10/21 06:54:41;0.00;0.00;0.62;0.00;0.00;0.62;1.80;1.30;;;21.80;27.50;;;;;;2273060;61;20767;-58
2023/10/21 06:57:25;0.00;0.00;0.62;0.00;0.00;0.62;2.73;1.57;;;21.80;27.50;;;;;;2273148;61;20391;-58
2023/10/21 07:00:12;0.00;0.00;0.62;0.00;0.00;0.62;2.03;1.50;;;21.80;27.50;;;;;;2272803;61;20886;-57
2023/10/21 07:02:57;0.00;0.00;0.62;0.00;0.00;0.62;1.80;1.20;;;21.80;27.50;;;;;;2272968;61;20385;-57
2023/10/21 07:05:45;0.00;0.00;0.62;0.00;0.00;0.62;2.33;1.60;;;21.80;27.50;;;;;;2269983;61;20754;-58
2023/10/21 07:08:30;0.00;0.00;0.62;0.00;0.00;0.62;1.90;1.20;;;21.80;27.50;;;;;;2272782;61;20375;-58
2023/10/21 07:11:16;0.00;0.00;0.62;0.00;0.00;0.62;1.77;1.23;;;21.80;27.50;;;;;;2272952;61;20883;-56
2023/10/21 07:14:00;0.00;0.00;0.62;0.00;0.00;0.62;1.83;1.40;;;21.80;27.50;;;;;;2273161;61;20396;-60
2023/10/21 07:16:45;0.00;0.00;0.62;0.00;0.00;0.62;1.93;1.20;;;21.80;27.50;;;;;;2272967;61;20408;-60
2023/10/21 07:19:30;0.00;0.00;0.62;0.00;0.00;0.62;1.50;1.10;;;21.80;28.00;;;;;;2272413;61;20441;-60
2023/10/21 07:22:14;0.00;0.00;0.62;0.00;0.00;0.62;1.87;1.23;;;21.80;27.50;;;;;;2272968;61;20435;-60
2023/10/21 07:25:00;0.00;0.00;0.62;0.00;0.00;0.62;2.00;1.30;;;21.80;27.50;;;;;;2273147;61;20897;-58
2023/10/21 07:27:47;0.00;0.00;0.62;0.00;0.00;0.62;2.20;1.40;;;21.80;27.50;;;;;;2273168;61;20455;-56
2023/10/21 07:30:31;0.00;0.00;0.62;0.00;0.00;0.62;2.20;1.50;;;21.80;27.50;;;;;;2272914;61;20366;-60
2023/10/21 07:33:16;0.00;0.00;0.62;0.00;0.00;0.62;2.00;1.40;;;21.80;27.50;;;;;;2272879;61;20397;-60
2023/10/21 07:36:00;0.00;0.00;0.62;0.00;0.00;0.62;1.77;1.30;;;21.90;27.60;;;;;;2272940;61;20378;-57
2023/10/21 07:38:45;0.00;0.00;0.62;0.00;0.00;0.62;2.87;1.30;;;21.80;27.50;;;;;;2272721;61;20385;-57
2023/10/21 07:41:29;0.00;0.00;0.62;0.00;0.00;0.62;1.80;1.20;;;21.90;27.60;;;;;;2272951;61;20705;-58
2023/10/21 07:44:15;0.00;0.00;0.62;0.00;0.00;0.62;2.10;1.50;;;21.90;27.60;;;;;;2269816;61;20358;-59
2023/10/21 07:47:00;0.00;0.00;0.62;0.00;0.00;0.62;2.10;1.30;;;21.80;27.50;;;;;;2272821;60;20406;-57
2023/10/21 07:49:45;0.00;0.00;0.62;0.00;0.00;0.62;2.03;1.47;;;21.90;27.60;;;;;;2276694;60;20380;-59
2023/10/21 07:52:29;0.00;0.00;0.62;0.00;0.00;0.62;2.20;1.40;;;21.80;27.50;;;;;;2273546;60;20393;-59
2023/10/21 07:55:14;0.00;0.00;0.62;0.00;0.00;0.62;2.27;1.60;;;21.80;27.60;;;;;;2276755;60;20953;-60
2023/10/21 07:57:58;0.00;0.00;0.62;0.00;0.00;0.62;2.07;1.37;;;21.80;28.10;;;;;;2276654;60;20476;-56
2023/10/21 08:00:45;0.00;0.00;0.62;0.00;0.00;0.62;2.50;1.53;;;21.80;27.50;;;;;;2276776;60;20407;-58
2023/10/21 08:03:29;0.00;0.00;0.62;0.00;0.00;0.62;2.10;1.60;;;21.90;27.60;;;;;;2276664;60;20385;-60
2023/10/21 08:06:14;0.00;0.00;0.62;0.00;0.00;0.62;2.03;1.47;;;21.80;27.50;;;;;;2276826;60;20864;-60
2023/10/21 08:08:59;0.00;0.00;0.62;0.00;0.00;0.62;3.30;1.30;;;21.80;27.50;;;;;;2273117;60;20464;-58
2023/10/21 08:11:44;0.00;0.00;0.62;0.00;0.00;0.62;2.43;1.70;;;21.80;27.50;;;;;;2277001;60;20932;-57
2023/10/21 08:14:31;0.00;0.00;0.62;0.00;0.00;0.62;2.00;1.40;;;21.90;27.60;;;;;;2273785;60;20365;-59
2023/10/21 08:17:17;0.00;0.00;0.62;0.00;0.00;0.62;2.30;1.77;;;21.80;27.50;;;;;;2273269;60;20391;-64
2023/10/21 08:20:03;0.00;0.00;0.62;0.00;0.00;0.62;2.13;1.53;;;21.90;27.70;;;;;;2276665;60;20369;-57
2023/10/21 08:22:47;0.00;0.00;0.62;0.00;0.00;0.62;2.70;1.80;;;21.90;27.70;;;;;;2276776;60;20377;-60
2023/10/21 08:25:32;0.00;0.00;0.62;0.00;0.00;0.62;2.00;1.53;;;21.90;27.70;;;;;;2273502;60;20369;-59
2023/10/21 08:28:16;0.00;0.00;0.62;0.00;0.00;0.62;2.20;1.47;;;21.80;27.60;;;;;;2276474;60;20845;-56
2023/10/21 08:31:01;0.00;0.00;0.62;0.00;0.00;0.62;1.93;1.43;;;21.80;27.60;;;;;;2276979;60;20796;-60
2023/10/21 08:33:47;0.00;0.00;0.62;0.00;0.00;0.62;2.00;1.50;;;21.90;27.70;;;;;;2276605;60;20475;-56
2023/10/21 08:36:32;0.00;0.00;0.62;0.00;0.00;0.62;1.90;1.43;;;21.90;27.70;;;;;;2276788;60;20680;-56
2023/10/21 08:39:16;0.00;0.00;0.62;0.00;0.00;0.62;2.47;1.50;;;21.90;27.70;;;;;;2276397;60;20396;-58
2023/10/21 08:42:02;0.00;0.00;0.62;0.00;0.00;0.62;1.80;1.33;;;21.90;27.70;;;;;;2276909;60;20427;-59
2023/10/21 08:44:48;0.00;0.00;0.62;0.00;0.00;0.62;1.80;1.43;;;21.90;27.70;;;;;;2277024;60;20365;-60
2023/10/21 08:47:36;0.00;0.00;0.62;0.00;0.00;0.62;1.90;1.43;;;21.90;27.70;;;;;;2276866;60;20454;-60
2023/10/21 08:50:24;0.00;0.00;0.62;0.00;0.00;0.62;1.93;1.50;;;21.90;27.70;;;;;;2276600;60;20909;-60
2023/10/21 08:53:13;0.00;0.00;0.62;0.00;0.00;0.62;2.30;1.50;;;21.90;27.70;;;;;;2276648;60;20926;-59
2023/10/21 08:55:58;0.00;0.00;0.62;0.00;0.00;0.62;1.90;1.40;;;21.90;27.70;;;;;;2276940;60;20775;-60
2023/10/21 08:58:42;0.00;0.00;0.62;0.00;0.00;0.62;1.97;1.53;;;21.90;27.70;;;;;;2276340;60;20361;-58
2023/10/21 09:01:27;0.00;0.00;0.62;0.00;0.00;0.62;2.00;1.40;;;21.90;27.70;;;;;;2276666;60;20426;-59
2023/10/21 09:04:16;0.00;0.00;0.62;0.00;0.00;0.62;2.20;1.50;;;21.90;27.80;;;;;;2276757;60;20423;-60
2023/10/21 09:07:02;0.00;0.00;0.62;0.00;0.00;0.62;2.10;1.70;;;21.90;27.80;;;;;;2276785;60;20355;-60
2023/10/21 09:09:47;0.00;0.00;0.62;0.00;0.00;0.62;1.80;1.30;;;21.90;27.80;;;;;;2276769;60;20369;-56
2023/10/21 09:12:32;0.00;0.00;0.62;0.00;0.00;0.62;2.20;1.60;;;21.90;27.80;;;;;;2274246;60;20886;-57
2023/10/21 09:15:18;0.00;0.00;0.62;0.00;0.00;0.62;2.50;1.77;;;21.90;27.80;;;;;;2277597;60;20365;-60
2023/10/21 09:18:10;0.00;0.00;0.62;0.00;0.00;0.62;2.53;1.90;;;21.90;27.80;;;;;;2277085;60;20414;-60
2023/10/21 09:20:54;0.00;0.00;0.62;0.00;0.00;0.62;2.80;2.03;;;21.90;27.80;;;;;;2277685;60;20361;-55
2023/10/21 09:23:51;0.00;0.00;0.62;0.00;0.00;0.62;2.20;1.50;;;21.90;27.90;;;;;;2277356;60;20377;-57
2023/10/21 09:26:37;0.00;0.00;0.62;0.00;0.00;0.62;2.60;1.90;;;21.90;27.90;;;;;;2277531;60;20897;-60
2023/10/21 09:29:22;0.00;0.00;0.62;0.00;0.00;0.62;2.47;1.97;;;21.90;27.90;;;;;;2277104;60;20440;-59
2023/10/21 09:32:07;0.00;0.00;0.62;0.00;0.00;0.62;2.00;1.80;;;21.90;27.90;;;;;;2277392;60;20865;-59
2023/10/21 09:34:52;0.00;0.00;0.62;0.00;0.00;0.62;2.40;1.73;;;21.90;27.90;;;;;;2277351;60;20912;-60
2023/10/21 09:37:36;0.00;0.00;0.62;0.00;0.00;0.62;2.73;1.50;;;21.90;28.00;;;;;;2277441;60;20404;-57
2023/10/21 09:40:24;0.00;0.00;0.62;0.00;0.00;0.62;2.40;1.77;;;22.00;28.00;;;;;;2277447;60;20357;-57
2023/10/21 09:43:11;0.00;0.00;0.62;0.00;0.00;0.62;2.33;1.80;;;22.00;28.00;;;;;;2277438;60;20381;-60
2023/10/21 09:46:04;0.00;0.00;0.62;0.00;0.00;0.62;2.30;1.70;;;21.90;27.90;;;;;;2277101;60;20926;-58
2023/10/21 09:48:51;0.00;0.00;0.62;0.00;0.00;0.62;2.17;1.53;;;22.00;28.00;;;;;;2273853;60;20373;-57
2023/10/21 09:51:42;0.00;0.00;0.62;0.00;0.00;0.62;2.17;1.60;;;22.00;28.00;;;;;;2277407;60;20397;-60
2023/10/21 09:54:33;0.00;0.00;0.62;0.00;0.00;0.62;2.37;1.83;;;22.00;28.00;;;;;;2277421;60;20396;-59
2023/10/21 09:57:19;0.00;0.00;0.62;0.00;0.00;0.62;2.43;1.87;;;22.00;28.00;;;;;;2277390;60;20937;-59
2023/10/21 10:00:07;0.00;0.00;0.62;0.00;0.00;0.62;3.00;2.00;;;22.00;28.00;;;;;;2276876;60;20902;-59
2023/10/21 10:02:54;0.00;0.00;0.62;0.00;0.00;0.62;2.77;2.27;;;22.00;28.00;;;;;;2277323;60;20376;-57
2023/10/21 10:05:41;0.00;0.00;0.62;0.00;0.00;0.62;3.57;2.73;;;22.00;28.00;;;;;;2277315;60;20379;-60
2023/10/21 10:08:26;0.00;0.00;0.62;0.00;0.00;0.62;3.50;2.80;;;22.00;28.00;;;;;;2276666;60;20392;-58
2023/10/21 10:11:15;0.00;0.00;0.62;0.00;0.00;0.62;3.63;2.87;;;22.00;28.00;;;;;;2277398;60;20362;-57
2023/10/21 10:14:02;0.00;0.00;0.62;0.00;0.00;0.62;4.33;3.60;;;22.00;28.00;;;;;;2277177;60;20439;-58
2023/10/21 10:16:47;0.00;0.00;0.62;0.00;0.00;0.62;4.40;2.97;;;22.10;28.10;;;;;;2277414;60;20353;-56
2023/10/21 10:19:40;0.00;0.00;0.62;0.00;0.00;0.62;4.80;3.60;;;22.10;28.10;;;;;;2276956;60;20540;-60
2023/10/21 10:22:31;0.00;0.00;0.62;0.00;0.00;0.62;3.00;2.70;;;22.10;28.10;;;;;;2276908;60;20431;-60
2023/10/21 10:25:24;0.00;0.00;0.62;0.00;0.00;0.62;4.27;2.60;;;22.10;28.10;;;;;;2277117;60;20365;-56
2023/10/21 10:28:17;0.00;0.00;0.62;0.00;0.00;0.62;3.50;2.87;;;22.10;28.10;;;;;;2273641;60;20411;-60
2023/10/21 10:31:04;0.00;0.00;0.62;0.00;0.00;0.62;3.13;2.30;;;22.10;28.10;;;;;;2277098;60;20365;-58
2023/10/21 10:33:51;0.00;0.00;0.62;0.00;0.00;0.62;3.50;2.80;;;22.10;28.10;;;;;;2276786;60;20392;-59
2023/10/21 10:36:36;0.00;0.00;0.62;0.00;0.00;0.62;3.50;2.63;;;22.10;28.10;;;;;;2277075;60;20407;-57
2023/10/21 10:39:38;0.00;0.00;0.62;0.00;0.00;0.62;3.07;2.40;;;22.10;28.10;;;;;;2276723;60;20369;-57
2023/10/21 10:42:28;0.00;0.00;0.62;0.00;0.00;0.62;3.03;2.07;;;22.10;28.10;;;;;;2277168;60;20932;-57
2023/10/21 10:45:12;0.00;0.00;0.62;0.00;0.00;0.62;3.50;2.40;;;22.10;28.10;;;;;;2277101;60;20377;-59
2023/10/21 10:48:04;0.00;0.00;0.62;0.00;0.00;0.62;3.00;2.60;;;22.10;28.10;;;;;;2276833;60;20361;-57
2023/10/21 10:50:48;0.00;0.00;0.62;0.00;0.00;0.62;2.43;1.80;;;22.10;28.10;;;;;;2277135;60;20445;-59
2023/10/21 10:53:34;0.00;0.00;0.62;0.00;0.00;0.62;3.10;2.20;;;22.20;28.10;;;;;;2276728;60;20435;-57